sensor_id;sensor_type;location;lat;lon;timestamp;pressure;altitude;pressure_sealevel;temperature;humidity
12178;BME280;6152;48.728;9.256;2023-02-10T00:01:15;98904.38;;;-2.88;100.00
12178;BME280;6152;48.728;9.256;2023-02-10T00:03:42;98912.69;;;-2.95;100.00
12178;BME280;6152;48.728;9.256;2023-02-10T00:06:10;98912.50;;;-3.04;100.00
12178;BME280;6152;48.728;9.256;2023-02-10T00:08:36;98919.13;;;-3.12;100.00
12178;BME280;6152;48.728;9.256;2023-02-10T00:11:08;98915.56;;;-3.19;100.00
12178;BME280;6152;48.728;9.256;2023-02-10T00:13:37;98917.06;;;-3.28;100.00
12178;BME280;6152;48.728;9.256;2023-02-10T00:16:05;98904.16;;;-3.34;100.00
12178;BME280;6152;48.728;9.256;2023-02-10T00:18:31;98911.75;;;-3.37;100.00
12178;BME280;6152;48.728;9.256;2023-02-10T00:21:09;98902.28;;;-3.43;100.00
12178;BME280;6152;48.728;9.256;2023-02-10T00:23:36;98909.13;;;-3.42;100.00
12178;BME280;6152;48.728;9.256;2023-02-10T00:26:03;98904.78;;;-3.44;100.00
12178;BME280;6152;48.728;9.256;2023-02-10T00:28:32;98908.13;;;-3.48;100.00
12178;BME280;6152;48.728;9.256;2023-02-10T00:30:58;98907.94;;;-3.54;100.00
12178;BME280;6152;48.728;9.256;2023-02-10T00:33:24;98911.25;;;-3.59;100.00
12178;BME280;6152;48.728;9.256;2023-02-10T00:35:50;98914.56;;;-3.63;100.00
12178;BME280;6152;48.728;9.256;2023-02-10T00:38:16;98907.66;;;-3.67;100.00
12178;BME280;6152;48.728;9.256;2023-02-10T00:40:43;98917.69;;;-3.73;100.00
12178;BME280;6152;48.728;9.256;2023-02-10T00:43:09;98915.06;;;-3.76;100.00
12178;BME280;6152;48.728;9.256;2023-02-10T00:45:35;98917.59;;;-3.76;100.00
12178;BME280;6152;48.728;9.256;2023-02-10T00:48:01;98923.47;;;-3.78;100.00
12178;BME280;6152;48.728;9.256;2023-02-10T00:50:27;98931.91;;;-3.81;100.00
12178;BME280;6152;48.728;9.256;2023-02-10T00:52:54;98929.28;;;-3.84;100.00
12178;BME280;6152;48.728;9.256;2023-02-10T00:55:20;98936.00;;;-3.86;100.00
12178;BME280;6152;48.728;9.256;2023-02-10T00:57:46;98933.44;;;-3.87;100.00
12178;BME280;6152;48.728;9.256;2023-02-10T01:00:12;98938.47;;;-3.89;100.00
12178;BME280;6152;48.728;9.256;2023-02-10T01:02:39;98929.94;;;-3.91;100.00
12178;BME280;6152;48.728;9.256;2023-02-10T01:05:05;98930.69;;;-3.95;100.00
12178;BME280;6152;48.728;9.256;2023-02-10T01:07:31;98935.84;;;-3.92;100.00
12178;BME280;6152;48.728;9.256;2023-02-10T01:09:57;98940.94;;;-3.92;100.00
12178;BME280;6152;48.728;9.256;2023-02-10T01:12:23;98942.53;;;-3.97;100.00
12178;BME280;6152;48.728;9.256;2023-02-10T01:14:49;98940.66;;;-4.02;100.00
12178;BME280;6152;48.728;9.256;2023-02-10T01:17:16;98938.91;;;-4.05;100.00
12178;BME280;6152;48.728;9.256;2023-02-10T01:19:42;98949.00;;;-4.08;100.00
12178;BME280;6152;48.728;9.256;2023-02-10T01:22:08;98952.31;;;-4.11;100.00
12178;BME280;6152;48.728;9.256;2023-02-10T01:24:34;98953.13;;;-4.12;100.00
12178;BME280;6152;48.728;9.256;2023-02-10T01:27:00;98947.09;;;-4.15;100.00
12178;BME280;6152;48.728;9.256;2023-02-10T01:29:26;98949.59;;;-4.17;100.00
12178;BME280;6152;48.728;9.256;2023-02-10T01:31:52;98950.47;;;-4.16;100.00
12178;BME280;6152;48.728;9.256;2023-02-10T01:34:18;98939.50;;;-4.15;100.00
12178;BME280;6152;48.728;9.256;2023-02-10T01:36:44;98944.44;;;-4.20;100.00
12178;BME280;6152;48.728;9.256;2023-02-10T01:39:10;98938.41;;;-4.23;100.00
12178;BME280;6152;48.728;9.256;2023-02-10T01:41:36;98940.94;;;-4.23;100.00
12178;BME280;6152;48.728;9.256;2023-02-10T01:46:52;98934.16;;;-4.24;100.00
12178;BME280;6152;48.728;9.256;2023-02-10T01:49:23;98939.19;;;-4.26;100.00
12178;BME280;6152;48.728;9.256;2023-02-10T01:52:05;98934.84;;;-4.30;100.00
12178;BME280;6152;48.728;9.256;2023-02-10T01:54:59;98941.53;;;-4.33;100.00
12178;BME280;6152;48.728;9.256;2023-02-10T01:57:23;98942.25;;;-4.37;100.00
12178;BME280;6152;48.728;9.256;2023-02-10T01:59:50;98928.59;;;-4.41;100.00
12178;BME280;6152;48.728;9.256;2023-02-10T02:02:17;98928.59;;;-4.42;100.00
12178;BME280;6152;48.728;9.256;2023-02-10T02:04:51;98926.03;;;-4.42;100.00
12178;BME280;6152;48.728;9.256;2023-02-10T02:07:23;98931.03;;;-4.45;100.00
12178;BME280;6152;48.728;9.256;2023-02-10T02:09:52;98936.00;;;-4.50;100.00
12178;BME280;6152;48.728;9.256;2023-02-10T02:12:34;98938.44;;;-4.53;100.00
12178;BME280;6152;48.728;9.256;2023-02-10T02:18:25;98948.38;;;-4.62;100.00
12178;BME280;6152;48.728;9.256;2023-02-10T02:26:51;98956.47;;;-4.74;100.00
12178;BME280;6152;48.728;9.256;2023-02-10T02:32:24;98964.81;;;-4.78;100.00
12178;BME280;6152;48.728;9.256;2023-02-10T02:35:04;98965.59;;;-4.80;100.00
12178;BME280;6152;48.728;9.256;2023-02-10T02:37:36;98966.47;;;-4.80;100.00
12178;BME280;6152;48.728;9.256;2023-02-10T02:40:03;98963.94;;;-4.80;100.00
12178;BME280;6152;48.728;9.256;2023-02-10T02:42:31;98960.53;;;-4.79;100.00
12178;BME280;6152;48.728;9.256;2023-02-10T02:45:02;98964.72;;;-4.81;100.00
12178;BME280;6152;48.728;9.256;2023-02-10T02:58:37;98971.34;;;-4.86;100.00
12178;BME280;6152;48.728;9.256;2023-02-10T03:01:23;98979.78;;;-4.87;100.00
12178;BME280;6152;48.728;9.256;2023-02-10T03:03:53;98976.34;;;-4.89;100.00
12178;BME280;6152;48.728;9.256;2023-02-10T03:06:20;98978.94;;;-4.86;100.00
12178;BME280;6152;48.728;9.256;2023-02-10T03:08:46;98976.41;;;-4.86;100.00
12178;BME280;6152;48.728;9.256;2023-02-10T03:11:12;98973.03;;;-4.86;100.00
12178;BME280;6152;48.728;9.256;2023-02-10T03:13:38;98979.06;;;-4.83;100.00
12178;BME280;6152;48.728;9.256;2023-02-10T03:16:04;98980.88;;;-4.79;100.00
12178;BME280;6152;48.728;9.256;2023-02-10T03:18:31;98974.09;;;-4.80;100.00
12178;BME280;6152;48.728;9.256;2023-02-10T03:20:57;98980.78;;;-4.82;100.00
12178;BME280;6152;48.728;9.256;2023-02-10T03:23:23;98982.50;;;-4.81;100.00
12178;BME280;6152;48.728;9.256;2023-02-10T03:25:49;98977.34;;;-4.84;100.00
12178;BME280;6152;48.728;9.256;2023-02-10T03:28:16;98978.94;;;-4.86;100.00
12178;BME280;6152;48.728;9.256;2023-02-10T03:30:42;98984.00;;;-4.87;100.00
12178;BME280;6152;48.728;9.256;2023-02-10T03:33:13;98978.94;;;-4.86;100.00
12178;BME280;6152;48.728;9.256;2023-02-10T03:35:39;98982.41;;;-4.84;100.00
12178;BME280;6152;48.728;9.256;2023-02-10T03:38:06;98982.44;;;-4.82;100.00
12178;BME280;6152;48.728;9.256;2023-02-10T03:40:33;98987.50;;;-4.84;100.00
12178;BME280;6152;48.728;9.256;2023-02-10T03:42:59;98991.72;;;-4.84;100.00
12178;BME280;6152;48.728;9.256;2023-02-10T03:45:25;98976.25;;;-4.92;100.00
12178;BME280;6152;48.728;9.256;2023-02-10T03:47:51;98983.06;;;-4.89;100.00
12178;BME280;6152;48.728;9.256;2023-02-10T03:50:17;98989.00;;;-4.90;100.00
12178;BME280;6152;48.728;9.256;2023-02-10T03:52:44;98998.19;;;-4.94;100.00
12178;BME280;6152;48.728;9.256;2023-02-10T03:55:10;99000.66;;;-4.95;100.00
12178;BME280;6152;48.728;9.256;2023-02-10T03:57:40;99002.25;;;-4.99;100.00
12178;BME280;6152;48.728;9.256;2023-02-10T04:00:07;99005.50;;;-5.03;100.00
12178;BME280;6152;48.728;9.256;2023-02-10T04:02:33;99001.91;;;-5.10;100.00
12178;BME280;6152;48.728;9.256;2023-02-10T04:04:59;99005.16;;;-5.14;100.00
12178;BME280;6152;48.728;9.256;2023-02-10T04:07:26;99006.00;;;-5.15;100.00
12178;BME280;6152;48.728;9.256;2023-02-10T04:09:52;99003.41;;;-5.16;100.00
12178;BME280;6152;48.728;9.256;2023-02-10T04:12:18;99009.31;;;-5.17;100.00
12178;BME280;6152;48.728;9.256;2023-02-10T04:14:44;99005.69;;;-5.24;100.00
12178;BME280;6152;48.728;9.256;2023-02-10T04:17:10;98998.84;;;-5.28;100.00
12178;BME280;6152;48.728;9.256;2023-02-10T04:19:36;99003.06;;;-5.27;100.00
12178;BME280;6152;48.728;9.256;2023-02-10T04:22:02;99006.47;;;-5.26;100.00
12178;BME280;6152;48.728;9.256;2023-02-10T04:24:28;99003.06;;;-5.27;100.00
12178;BME280;6152;48.728;9.256;2023-02-10T04:26:55;99001.22;;;-5.32;100.00
12178;BME280;6152;48.728;9.256;2023-02-10T04:29:22;99008.66;;;-5.37;100.00
12178;BME280;6152;48.728;9.256;2023-02-10T04:31:48;99007.81;;;-5.37;100.00
12178;BME280;6152;48.728;9.256;2023-02-10T04:34:14;99006.84;;;-5.41;100.00
12178;BME280;6152;48.728;9.256;2023-02-10T04:36:41;99005.22;;;-5.39;100.00
12178;BME280;6152;48.728;9.256;2023-02-10T04:39:07;99007.59;;;-5.43;100.00
12178;BME280;6152;48.728;9.256;2023-02-10T04:41:33;99004.28;;;-5.42;100.00
12178;BME280;6152;48.728;9.256;2023-02-10T04:43:59;99012.59;;;-5.46;100.00
12178;BME280;6152;48.728;9.256;2023-02-10T04:46:25;99017.66;;;-5.46;100.00
12178;BME280;6152;48.728;9.256;2023-02-10T04:48:51;99014.22;;;-5.48;100.00
12178;BME280;6152;48.728;9.256;2023-02-10T04:51:17;99016.78;;;-5.47;100.00
12178;BME280;6152;48.728;9.256;2023-02-10T04:53:43;99015.81;;;-5.50;100.00
12178;BME280;6152;48.728;9.256;2023-02-10T04:56:10;99009.16;;;-5.48;100.00
12178;BME280;6152;48.728;9.256;2023-02-10T04:58:36;99006.34;;;-5.56;100.00
12178;BME280;6152;48.728;9.256;2023-02-10T05:01:03;99014.94;;;-5.52;100.00
12178;BME280;6152;48.728;9.256;2023-02-10T05:03:29;99029.31;;;-5.51;100.00
12178;BME280;6152;48.728;9.256;2023-02-10T05:05:55;99025.00;;;-5.54;100.00
12178;BME280;6152;48.728;9.256;2023-02-10T05:08:21;99022.44;;;-5.55;100.00
12178;BME280;6152;48.728;9.256;2023-02-10T05:10:52;99027.50;;;-5.55;100.00
12178;BME280;6152;48.728;9.256;2023-02-10T05:13:19;99025.78;;;-5.56;100.00
12178;BME280;6152;48.728;9.256;2023-02-10T05:15:46;99035.03;;;-5.58;100.00
12178;BME280;6152;48.728;9.256;2023-02-10T05:18:12;99041.78;;;-5.57;100.00
12178;BME280;6152;48.728;9.256;2023-02-10T05:20:38;99043.47;;;-5.58;100.00
12178;BME280;6152;48.728;9.256;2023-02-10T05:23:04;99044.22;;;-5.61;100.00
12178;BME280;6152;48.728;9.256;2023-02-10T05:25:30;99042.56;;;-5.60;100.00
12178;BME280;6152;48.728;9.256;2023-02-10T05:27:56;99031.28;;;-5.68;100.00
12178;BME280;6152;48.728;9.256;2023-02-10T05:30:22;99040.78;;;-5.63;100.00
12178;BME280;6152;48.728;9.256;2023-02-10T05:32:49;99042.41;;;-5.65;100.00
12178;BME280;6152;48.728;9.256;2023-02-10T05:35:15;99042.41;;;-5.65;100.00
12178;BME280;6152;48.728;9.256;2023-02-10T05:37:41;99042.50;;;-5.62;100.00
12178;BME280;6152;48.728;9.256;2023-02-10T05:40:08;99050.94;;;-5.63;100.00
12178;BME280;6152;48.728;9.256;2023-02-10T05:42:34;99056.00;;;-5.63;100.00
12178;BME280;6152;48.728;9.256;2023-02-10T05:45:00;99050.94;;;-5.63;100.00
12178;BME280;6152;48.728;9.256;2023-02-10T05:47:26;99054.06;;;-5.70;100.00
12178;BME280;6152;48.728;9.256;2023-02-10T05:49:52;99055.06;;;-5.65;100.00
12178;BME280;6152;48.728;9.256;2023-02-10T05:52:18;99052.44;;;-5.68;100.00
12178;BME280;6152;48.728;9.256;2023-02-10T05:54:44;99051.44;;;-5.73;100.00
12178;BME280;6152;48.728;9.256;2023-02-10T05:57:10;99058.09;;;-5.75;100.00
12178;BME280;6152;48.728;9.256;2023-02-10T05:59:36;99045.94;;;-5.85;100.00
12178;BME280;6152;48.728;9.256;2023-02-10T06:02:03;99061.31;;;-5.80;100.00
12178;BME280;6152;48.728;9.256;2023-02-10T06:04:29;99060.44;;;-5.81;100.00
12178;BME280;6152;48.728;9.256;2023-02-10T06:06:55;99069.72;;;-5.81;100.00
12178;BME280;6152;48.728;9.256;2023-02-10T06:09:21;99079.81;;;-5.83;100.00
12178;BME280;6152;48.728;9.256;2023-02-10T06:11:50;99076.50;;;-5.80;100.00
12178;BME280;6152;48.728;9.256;2023-02-10T06:14:16;99075.75;;;-5.78;100.00
12178;BME280;6152;48.728;9.256;2023-02-10T06:16:42;99079.09;;;-5.79;100.00
12178;BME280;6152;48.728;9.256;2023-02-10T06:19:08;99084.06;;;-5.82;100.00
12178;BME280;6152;48.728;9.256;2023-02-10T06:21:34;99090.78;;;-5.82;100.00
12178;BME280;6152;48.728;9.256;2023-02-10T06:24:00;99083.09;;;-5.87;100.00
12178;BME280;6152;48.728;9.256;2023-02-10T06:26:26;99087.22;;;-5.89;100.00
12178;BME280;6152;48.728;9.256;2023-02-10T06:28:54;99087.97;;;-5.91;100.00
12178;BME280;6152;48.728;9.256;2023-02-10T06:31:20;99097.34;;;-5.89;100.00
12178;BME280;6152;48.728;9.256;2023-02-10T06:33:46;99097.34;;;-5.89;100.00
12178;BME280;6152;48.728;9.256;2023-02-10T06:36:13;99097.31;;;-5.90;100.00
12178;BME280;6152;48.728;9.256;2023-02-10T06:38:39;99101.50;;;-5.91;100.00
12178;BME280;6152;48.728;9.256;2023-02-10T06:41:06;99099.16;;;-5.86;100.00
12178;BME280;6152;48.728;9.256;2023-02-10T06:43:32;99113.50;;;-5.85;100.00
12178;BME280;6152;48.728;9.256;2023-02-10T06:45:58;99104.34;;;-5.82;100.00
12178;BME280;6152;48.728;9.256;2023-02-10T06:48:25;99109.41;;;-5.82;100.00
12178;BME280;6152;48.728;9.256;2023-02-10T06:50:52;99107.81;;;-5.80;100.00
12178;BME280;6152;48.728;9.256;2023-02-10T06:53:19;99111.13;;;-5.81;100.00
12178;BME280;6152;48.728;9.256;2023-02-10T06:55:45;99115.34;;;-5.81;100.00
12178;BME280;6152;48.728;9.256;2023-02-10T06:58:11;99133.06;;;-5.83;100.00
12178;BME280;6152;48.728;9.256;2023-02-10T07:00:38;99126.25;;;-5.84;100.00
12178;BME280;6152;48.728;9.256;2023-02-10T07:03:04;99127.97;;;-5.83;100.00
12178;BME280;6152;48.728;9.256;2023-02-10T07:05:30;99135.63;;;-5.81;100.00
12178;BME280;6152;48.728;9.256;2023-02-10T07:07:57;99138.22;;;-5.80;100.00
12178;BME280;6152;48.728;9.256;2023-02-10T07:10:25;99140.03;;;-5.76;100.00
12178;BME280;6152;48.728;9.256;2023-02-10T07:12:51;99138.44;;;-5.74;100.00
12178;BME280;6152;48.728;9.256;2023-02-10T07:15:17;99142.13;;;-5.66;100.00
12178;BME280;6152;48.728;9.256;2023-02-10T07:17:45;99132.97;;;-5.61;100.00
12178;BME280;6152;48.728;9.256;2023-02-10T07:20:11;99144.28;;;-5.52;100.00
12178;BME280;6152;48.728;9.256;2023-02-10T07:22:38;99131.19;;;-5.39;100.00
12178;BME280;6152;48.728;9.256;2023-02-10T07:25:04;99133.13;;;-5.32;100.00
12178;BME280;6152;48.728;9.256;2023-02-10T07:27:30;99141.00;;;-5.25;100.00
12178;BME280;6152;48.728;9.256;2023-02-10T07:29:56;99137.00;;;-5.18;100.00
12178;BME280;6152;48.728;9.256;2023-02-10T07:32:22;99135.69;;;-5.07;100.00
12178;BME280;6152;48.728;9.256;2023-02-10T07:34:48;99135.13;;;-4.98;100.00
12178;BME280;6152;48.728;9.256;2023-02-10T07:37:15;99140.47;;;-4.89;100.00
12178;BME280;6152;48.728;9.256;2023-02-10T07:39:42;99140.69;;;-4.83;100.00
12178;BME280;6152;48.728;9.256;2023-02-10T07:42:08;99146.94;;;-4.74;100.00
12178;BME280;6152;48.728;9.256;2023-02-10T07:44:34;99153.94;;;-4.67;100.00
12178;BME280;6152;48.728;9.256;2023-02-10T07:47:00;99153.25;;;-4.61;100.00
12178;BME280;6152;48.728;9.256;2023-02-10T07:49:26;99155.06;;;-4.57;100.00
12178;BME280;6152;48.728;9.256;2023-02-10T07:51:55;99157.19;;;-4.44;100.00
12178;BME280;6152;48.728;9.256;2023-02-10T07:54:21;99154.06;;;-4.35;100.00
12178;BME280;6152;48.728;9.256;2023-02-10T07:56:47;99165.31;;;-4.27;100.00
12178;BME280;6152;48.728;9.256;2023-02-10T07:59:13;99158.72;;;-4.22;100.00
12178;BME280;6152;48.728;9.256;2023-02-10T08:01:41;99155.00;;;-4.05;100.00
12178;BME280;6152;48.728;9.256;2023-02-10T08:04:12;99149.34;;;-3.95;100.00
12178;BME280;6152;48.728;9.256;2023-02-10T08:06:38;99147.25;;;-3.80;100.00
12178;BME280;6152;48.728;9.256;2023-02-10T08:09:05;99148.31;;;-3.72;100.00
12178;BME280;6152;48.728;9.256;2023-02-10T08:11:32;99153.84;;;-3.57;100.00
12178;BME280;6152;48.728;9.256;2023-02-10T08:13:59;99150.75;;;-3.46;100.00
12178;BME280;6152;48.728;9.256;2023-02-10T08:16:26;99145.84;;;-3.39;100.00
12178;BME280;6152;48.728;9.256;2023-02-10T08:18:52;99156.91;;;-3.38;100.00
12178;BME280;6152;48.728;9.256;2023-02-10T08:21:18;99155.25;;;-3.36;100.00
12178;BME280;6152;48.728;9.256;2023-02-10T08:23:44;99151.31;;;-3.25;100.00
12178;BME280;6152;48.728;9.256;2023-02-10T08:26:12;99158.44;;;-3.12;100.00
12178;BME280;6152;48.728;9.256;2023-02-10T08:28:40;99161.13;;;-3.06;100.00
12178;BME280;6152;48.728;9.256;2023-02-10T08:31:08;99165.63;;;-2.97;100.00
12178;BME280;6152;48.728;9.256;2023-02-10T08:33:35;99159.69;;;-2.96;100.00
12178;BME280;6152;48.728;9.256;2023-02-10T08:36:20;99165.03;;;-2.87;100.00
12178;BME280;6152;48.728;9.256;2023-02-10T08:38:47;99170.47;;;-2.74;100.00
12178;BME280;6152;48.728;9.256;2023-02-10T08:41:14;99171.81;;;-2.53;100.00
12178;BME280;6152;48.728;9.256;2023-02-10T08:43:41;99175.97;;;-2.57;100.00
12178;BME280;6152;48.728;9.256;2023-02-10T08:46:45;99174.69;;;-2.40;100.00
12178;BME280;6152;48.728;9.256;2023-02-10T08:49:30;99175.31;;;-2.14;100.00
12178;BME280;6152;48.728;9.256;2023-02-10T08:51:56;99174.75;;;-2.01;100.00
12178;BME280;6152;48.728;9.256;2023-02-10T08:54:22;99179.28;;;-1.88;100.00
12178;BME280;6152;48.728;9.256;2023-02-10T08:56:52;99172.50;;;-1.87;100.00
12178;BME280;6152;48.728;9.256;2023-02-10T08:59:18;99175.16;;;-1.83;100.00
12178;BME280;6152;48.728;9.256;2023-02-10T09:01:44;99172.94;;;-1.66;100.00
12178;BME280;6152;48.728;9.256;2023-02-10T09:04:11;99170.53;;;-1.59;100.00
12178;BME280;6152;48.728;9.256;2023-02-10T09:06:39;99168.59;;;-1.28;100.00
12178;BME280;6152;48.728;9.256;2023-02-10T09:09:09;99168.16;;;-1.06;100.00
12178;BME280;6152;48.728;9.256;2023-02-10T09:11:36;99164.38;;;-0.80;100.00
12178;BME280;6152;48.728;9.256;2023-02-10T09:14:02;99171.28;;;-0.74;100.00
12178;BME280;6152;48.728;9.256;2023-02-10T09:16:28;99169.72;;;-1.13;100.00
12178;BME280;6152;48.728;9.256;2023-02-10T09:18:54;99170.66;;;-1.09;100.00
12178;BME280;6152;48.728;9.256;2023-02-10T09:21:21;99167.72;;;-0.82;100.00
12178;BME280;6152;48.728;9.256;2023-02-10T09:23:47;99165.09;;;-0.34;100.00
12178;BME280;6152;48.728;9.256;2023-02-10T09:26:13;99166.63;;;0.10;100.00
12178;BME280;6152;48.728;9.256;2023-02-10T09:28:39;99167.72;;;0.27;100.00
12178;BME280;6152;48.728;9.256;2023-02-10T09:31:07;99156.81;;;0.43;100.00
12178;BME280;6152;48.728;9.256;2023-02-10T09:33:34;99162.06;;;0.56;100.00
12178;BME280;6152;48.728;9.256;2023-02-10T09:36:03;99151.94;;;0.65;100.00
12178;BME280;6152;48.728;9.256;2023-02-10T09:38:30;99154.38;;;0.56;100.00
12178;BME280;6152;48.728;9.256;2023-02-10T09:41:03;99159.22;;;1.05;100.00
12178;BME280;6152;48.728;9.256;2023-02-10T09:49:00;99165.59;;;4.00;100.00
12178;BME280;6152;48.728;9.256;2023-02-10T09:51:43;99161.22;;;6.66;83.70
12178;BME280;6152;48.728;9.256;2023-02-10T09:54:16;99157.97;;;9.07;61.81
12178;BME280;6152;48.728;9.256;2023-02-10T09:56:42;99150.59;;;11.50;54.48
12178;BME280;6152;48.728;9.256;2023-02-10T09:59:15;99149.25;;;12.65;45.91
12178;BME280;6152;48.728;9.256;2023-02-10T10:01:51;99143.53;;;14.31;42.33
12178;BME280;6152;48.728;9.256;2023-02-10T10:04:21;99142.56;;;15.30;38.60
12178;BME280;6152;48.728;9.256;2023-02-10T10:07:07;99134.03;;;16.14;35.98
12178;BME280;6152;48.728;9.256;2023-02-10T10:09:44;99132.50;;;17.10;32.59
12178;BME280;6152;48.728;9.256;2023-02-10T10:12:17;99136.06;;;17.56;32.84
12178;BME280;6152;48.728;9.256;2023-02-10T10:14:44;99129.94;;;16.76;31.86
12178;BME280;6152;48.728;9.256;2023-02-10T10:31:35;99112.19;;;16.31;30.68
12178;BME280;6152;48.728;9.256;2023-02-10T10:34:10;99110.88;;;16.55;31.72
12178;BME280;6152;48.728;9.256;2023-02-10T10:36:45;99105.41;;;17.39;30.85
12178;BME280;6152;48.728;9.256;2023-02-10T10:41:41;99113.47;;;19.12;28.26
12178;BME280;6152;48.728;9.256;2023-02-10T10:44:11;99109.06;;;19.53;27.86
12178;BME280;6152;48.728;9.256;2023-02-10T10:46:57;99099.50;;;20.17;27.03
12178;BME280;6152;48.728;9.256;2023-02-10T10:49:26;99107.38;;;19.52;26.66
12178;BME280;6152;48.728;9.256;2023-02-10T10:51:53;99100.81;;;19.85;26.95
12178;BME280;6152;48.728;9.256;2023-02-10T10:54:21;99102.09;;;21.31;26.06
12178;BME280;6152;48.728;9.256;2023-02-10T10:57:02;99109.88;;;21.68;25.96
12178;BME280;6152;48.728;9.256;2023-02-10T10:59:49;99113.94;;;22.66;24.86
12178;BME280;6152;48.728;9.256;2023-02-10T11:02:19;99102.22;;;23.35;23.42
12178;BME280;6152;48.728;9.256;2023-02-10T11:04:58;99089.66;;;23.26;23.69
12178;BME280;6152;48.728;9.256;2023-02-10T11:07:32;99082.91;;;22.55;24.14
12178;BME280;6152;48.728;9.256;2023-02-10T11:09:59;99083.72;;;21.88;24.42
12178;BME280;6152;48.728;9.256;2023-02-10T11:12:37;99090.25;;;20.37;25.56
12178;BME280;6152;48.728;9.256;2023-02-10T11:15:32;99082.88;;;17.95;27.50
12178;BME280;6152;48.728;9.256;2023-02-10T11:18:01;99073.66;;;19.29;27.18
12178;BME280;6152;48.728;9.256;2023-02-10T11:20:30;99071.09;;;20.33;25.85
12178;BME280;6152;48.728;9.256;2023-02-10T11:23:16;99074.38;;;20.37;25.35
12178;BME280;6152;48.728;9.256;2023-02-10T11:25:47;99066.28;;;20.89;24.49
12178;BME280;6152;48.728;9.256;2023-02-10T11:28:23;99073.25;;;19.35;25.14
12178;BME280;6152;48.728;9.256;2023-02-10T11:31:06;99068.31;;;21.93;23.73
12178;BME280;6152;48.728;9.256;2023-02-10T11:33:39;99076.56;;;23.02;22.78
12178;BME280;6152;48.728;9.256;2023-02-10T11:36:09;99067.44;;;22.38;23.07
12178;BME280;6152;48.728;9.256;2023-02-10T11:38:44;99063.41;;;23.76;22.34
12178;BME280;6152;48.728;9.256;2023-02-10T11:41:10;99072.25;;;24.29;21.02
12178;BME280;6152;48.728;9.256;2023-02-10T11:43:45;99064.19;;;24.40;20.81
12178;BME280;6152;48.728;9.256;2023-02-10T11:46:26;99062.53;;;24.99;20.05
12178;BME280;6152;48.728;9.256;2023-02-10T11:51:24;99052.78;;;23.76;19.49
12178;BME280;6152;48.728;9.256;2023-02-10T11:53:51;99057.97;;;23.02;20.16
12178;BME280;6152;48.728;9.256;2023-02-10T11:59:42;99054.88;;;23.93;19.24
12178;BME280;6152;48.728;9.256;2023-02-10T12:07:42;99034.84;;;25.59;18.00
12178;BME280;6152;48.728;9.256;2023-02-10T12:10:47;99036.94;;;23.85;18.80
12178;BME280;6152;48.728;9.256;2023-02-10T12:16:04;99043.81;;;24.90;19.11
12178;BME280;6152;48.728;9.256;2023-02-10T12:24:33;99041.75;;;24.33;19.21
12178;BME280;6152;48.728;9.256;2023-02-10T12:32:59;99024.91;;;25.61;18.10
12178;BME280;6152;48.728;9.256;2023-02-10T12:38:26;99020.66;;;25.69;17.37
12178;BME280;6152;48.728;9.256;2023-02-10T12:50:02;99003.50;;;24.74;18.54
12178;BME280;6152;48.728;9.256;2023-02-10T12:52:33;99010.53;;;24.75;18.84
12178;BME280;6152;48.728;9.256;2023-02-10T12:55:13;98997.41;;;24.22;18.70
12178;BME280;6152;48.728;9.256;2023-02-10T12:57:45;98998.06;;;24.14;18.92
12178;BME280;6152;48.728;9.256;2023-02-10T13:00:27;99003.03;;;22.92;19.71
12178;BME280;6152;48.728;9.256;2023-02-10T13:03:03;98995.75;;;23.05;20.07
12178;BME280;6152;48.728;9.256;2023-02-10T13:05:39;98996.34;;;23.51;20.05
12178;BME280;6152;48.728;9.256;2023-02-10T13:08:16;98993.59;;;24.15;19.39
12178;BME280;6152;48.728;9.256;2023-02-10T13:10:52;98993.56;;;23.74;19.30
12178;BME280;6152;48.728;9.256;2023-02-10T13:13:29;98995.44;;;22.87;20.19
12178;BME280;6152;48.728;9.256;2023-02-10T13:16:10;98987.59;;;22.19;20.17
12178;BME280;6152;48.728;9.256;2023-02-10T13:18:52;98992.03;;;20.41;21.96
12178;BME280;6152;48.728;9.256;2023-02-10T13:21:34;98989.75;;;18.10;23.92
12178;BME280;6152;48.728;9.256;2023-02-10T13:24:27;98995.03;;;16.27;26.43
12178;BME280;6152;48.728;9.256;2023-02-10T13:30:13;98995.03;;;13.34;29.37
12178;BME280;6152;48.728;9.256;2023-02-10T13:35:29;98997.94;;;12.83;30.49
12178;BME280;6152;48.728;9.256;2023-02-10T13:37:59;99000.19;;;13.55;30.72
12178;BME280;6152;48.728;9.256;2023-02-10T13:40:52;98999.25;;;13.97;29.26
12178;BME280;6152;48.728;9.256;2023-02-10T13:45:51;99006.16;;;14.38;28.55
12178;BME280;6152;48.728;9.256;2023-02-10T13:48:41;99008.69;;;14.01;28.64
12178;BME280;6152;48.728;9.256;2023-02-10T13:51:09;99010.16;;;12.37;30.75
12178;BME280;6152;48.728;9.256;2023-02-10T14:01:39;99017.81;;;9.38;36.18
12178;BME280;6152;48.728;9.256;2023-02-10T14:04:30;99032.31;;;9.12;36.68
12178;BME280;6152;48.728;9.256;2023-02-10T14:07:17;99032.03;;;8.49;37.48
12178;BME280;6152;48.728;9.256;2023-02-10T14:13:04;99033.78;;;7.60;39.17
12178;BME280;6152;48.728;9.256;2023-02-10T14:15:33;99030.88;;;7.28;40.25
12178;BME280;6152;48.728;9.256;2023-02-10T14:18:06;99032.00;;;7.13;40.78
12178;BME280;6152;48.728;9.256;2023-02-10T14:20:47;99027.94;;;6.97;40.85
12178;BME280;6152;48.728;9.256;2023-02-10T14:23:21;99030.78;;;6.82;40.94
12178;BME280;6152;48.728;9.256;2023-02-10T14:25:56;99030.94;;;6.70;41.50
12178;BME280;6152;48.728;9.256;2023-02-10T14:28:28;99038.84;;;6.60;41.20
12178;BME280;6152;48.728;9.256;2023-02-10T14:30:57;99038.13;;;6.49;41.64
12178;BME280;6152;48.728;9.256;2023-02-10T14:33:27;99039.16;;;6.35;42.23
12178;BME280;6152;48.728;9.256;2023-02-10T14:35:57;99035.84;;;6.27;42.25
12178;BME280;6152;48.728;9.256;2023-02-10T14:38:27;99041.06;;;6.21;42.98
12178;BME280;6152;48.728;9.256;2023-02-10T14:40:54;99038.47;;;6.21;42.74
12178;BME280;6152;48.728;9.256;2023-02-10T14:43:27;99036.88;;;6.12;42.30
12178;BME280;6152;48.728;9.256;2023-02-10T14:45:56;99039.59;;;6.03;42.65
12178;BME280;6152;48.728;9.256;2023-02-10T14:48:23;99034.41;;;6.01;42.93
12178;BME280;6152;48.728;9.256;2023-02-10T14:51:03;99029.28;;;5.97;43.11
12178;BME280;6152;48.728;9.256;2023-02-10T14:53:31;99030.22;;;5.93;43.16
12178;BME280;6152;48.728;9.256;2023-02-10T14:56:01;99034.69;;;5.76;43.39
12178;BME280;6152;48.728;9.256;2023-02-10T14:58:27;99025.22;;;5.73;43.55
12178;BME280;6152;48.728;9.256;2023-02-10T15:01:34;99024.47;;;5.62;44.20
12178;BME280;6152;48.728;9.256;2023-02-10T15:04:01;99032.34;;;5.51;44.22